sensor_id;sensor_type;location;lat;lon;timestamp;pressure;altitude;pressure_sealevel;temperature;humidity
9462;BME280;4769;42.660;23.262;2023-06-05T00:02:03;94435.94;;;16.41;100.00
9462;BME280;4769;42.660;23.262;2023-06-05T00:04:29;94440.47;;;16.41;100.00
9462;BME280;4769;42.660;23.262;2023-06-05T00:06:54;94440.72;;;16.39;100.00
9462;BME280;4769;42.660;23.262;2023-06-05T00:09:23;94443.91;;;16.31;100.00
9462;BME280;4769;42.660;23.262;2023-06-05T00:11:49;94449.75;;;16.33;100.00
9462;BME280;4769;42.660;23.262;2023-06-05T00:14:15;94440.19;;;16.37;100.00
9462;BME280;4769;42.660;23.262;2023-06-05T00:16:40;94444.97;;;16.35;100.00
9462;BME280;4769;42.660;23.262;2023-06-05T00:19:06;94438.88;;;16.35;100.00
9462;BME280;4769;42.660;23.262;2023-06-05T00:21:32;94436.19;;;16.25;100.00
9462;BME280;4769;42.660;23.262;2023-06-05T00:23:57;94440.97;;;16.28;100.00
9462;BME280;4769;42.660;23.262;2023-06-05T00:26:26;94444.16;;;16.30;100.00
9462;BME280;4769;42.660;23.262;2023-06-05T00:28:51;94444.97;;;16.30;100.00
9462;BME280;4769;42.660;23.262;2023-06-05T00:31:17;94440.72;;;16.34;100.00
9462;BME280;4769;42.660;23.262;2023-06-05T00:33:43;94434.06;;;16.32;100.00
9462;BME280;4769;42.660;23.262;2023-06-05T00:36:09;94443.38;;;16.39;100.00
9462;BME280;4769;42.660;23.262;2023-06-05T00:38:34;94438.03;;;16.39;100.00
9462;BME280;4769;42.660;23.262;2023-06-05T00:41:01;94442.06;;;16.47;100.00
9462;BME280;4769;42.660;23.262;2023-06-05T00:43:29;94442.84;;;16.32;100.00
9462;BME280;4769;42.660;23.262;2023-06-05T00:45:59;94440.47;;;16.31;100.00
9462;BME280;4769;42.660;23.262;2023-06-05T00:48:26;94438.06;;;16.34;100.00
9462;BME280;4769;42.660;23.262;2023-06-05T00:50:52;94439.13;;;16.23;100.00
9462;BME280;4769;42.660;23.262;2023-06-05T00:53:18;94427.41;;;16.19;100.00
9462;BME280;4769;42.660;23.262;2023-06-05T00:55:43;94432.75;;;16.24;100.00
9462;BME280;4769;42.660;23.262;2023-06-05T00:58:10;94432.19;;;16.27;100.00
9462;BME280;4769;42.660;23.262;2023-06-05T01:00:38;94423.69;;;16.30;100.00
9462;BME280;4769;42.660;23.262;2023-06-05T01:03:04;94431.16;;;16.23;100.00
9462;BME280;4769;42.660;23.262;2023-06-05T01:05:30;94414.63;;;16.21;100.00
9462;BME280;4769;42.660;23.262;2023-06-05T01:07:55;94422.09;;;16.29;100.00
9462;BME280;4769;42.660;23.262;2023-06-05T01:10:22;94418.63;;;16.34;100.00
9462;BME280;4769;42.660;23.262;2023-06-05T01:12:52;94423.69;;;16.10;100.00
9462;BME280;4769;42.660;23.262;2023-06-05T01:15:19;94408.25;;;16.12;100.00
9462;BME280;4769;42.660;23.262;2023-06-05T01:17:49;94415.44;;;16.22;100.00
9462;BME280;4769;42.660;23.262;2023-06-05T01:20:14;94411.97;;;16.26;100.00
9462;BME280;4769;42.660;23.262;2023-06-05T01:22:40;94409.03;;;16.28;100.00
9462;BME280;4769;42.660;23.262;2023-06-05T01:25:09;94409.31;;;16.26;100.00
9462;BME280;4769;42.660;23.262;2023-06-05T01:27:39;94411.19;;;16.26;100.00
9462;BME280;4769;42.660;23.262;2023-06-05T01:30:11;94399.22;;;16.18;100.00
9462;BME280;4769;42.660;23.262;2023-06-05T01:32:43;94396.03;;;16.01;100.00
9462;BME280;4769;42.660;23.262;2023-06-05T01:35:11;94391.75;;;15.90;100.00
9462;BME280;4769;42.660;23.262;2023-06-05T01:37:40;94385.66;;;15.75;100.00
9462;BME280;4769;42.660;23.262;2023-06-05T01:40:12;94394.44;;;15.95;100.00
9462;BME280;4769;42.660;23.262;2023-06-05T01:42:40;94399.47;;;16.02;100.00
9462;BME280;4769;42.660;23.262;2023-06-05T01:45:08;94395.22;;;16.06;100.00
9462;BME280;4769;42.660;23.262;2023-06-05T01:47:34;94394.69;;;16.09;100.00
9462;BME280;4769;42.660;23.262;2023-06-05T01:50:00;94394.69;;;16.14;100.00
9462;BME280;4769;42.660;23.262;2023-06-05T01:52:26;94393.34;;;16.16;100.00
9462;BME280;4769;42.660;23.262;2023-06-05T01:54:52;94400.28;;;16.17;100.00
9462;BME280;4769;42.660;23.262;2023-06-05T01:57:20;94394.16;;;16.17;100.00
9462;BME280;4769;42.660;23.262;2023-06-05T01:59:46;94392.28;;;16.12;100.00
9462;BME280;4769;42.660;23.262;2023-06-05T02:02:12;94402.41;;;16.05;100.00
9462;BME280;4769;42.660;23.262;2023-06-05T02:04:37;94397.63;;;15.97;100.00
9462;BME280;4769;42.660;23.262;2023-06-05T02:07:03;94399.47;;;15.97;100.00
9462;BME280;4769;42.660;23.262;2023-06-05T02:09:29;94401.88;;;15.93;100.00
9462;BME280;4769;42.660;23.262;2023-06-05T02:11:55;94403.75;;;15.98;100.00
9462;BME280;4769;42.660;23.262;2023-06-05T02:14:23;94403.75;;;16.03;100.00
9462;BME280;4769;42.660;23.262;2023-06-05T02:16:49;94396.81;;;15.92;100.00
9462;BME280;4769;42.660;23.262;2023-06-05T02:19:15;94396.81;;;15.87;100.00
9462;BME280;4769;42.660;23.262;2023-06-05T02:21:40;94396.81;;;15.87;100.00
9462;BME280;4769;42.660;23.262;2023-06-05T02:24:06;94399.22;;;15.93;100.00
9462;BME280;4769;42.660;23.262;2023-06-05T02:26:32;94398.69;;;15.96;100.00
9462;BME280;4769;42.660;23.262;2023-06-05T02:28:58;94389.91;;;16.01;100.00
9462;BME280;4769;42.660;23.262;2023-06-05T02:31:26;94388.06;;;16.01;100.00
9462;BME280;4769;42.660;23.262;2023-06-05T02:33:52;94395.78;;;16.08;100.00
9462;BME280;4769;42.660;23.262;2023-06-05T02:36:18;94393.38;;;16.11;100.00
9462;BME280;4769;42.660;23.262;2023-06-05T02:38:44;94396.81;;;16.02;100.00
9462;BME280;4769;42.660;23.262;2023-06-05T02:41:09;94395.22;;;16.01;100.00
9462;BME280;4769;42.660;23.262;2023-06-05T02:43:35;94394.44;;;15.95;100.00
9462;BME280;4769;42.660;23.262;2023-06-05T02:46:01;94401.88;;;15.93;100.00
9462;BME280;4769;42.660;23.262;2023-06-05T02:48:29;94398.44;;;15.93;100.00
9462;BME280;4769;42.660;23.262;2023-06-05T02:50:55;94395.50;;;15.94;100.00
9462;BME280;4769;42.660;23.262;2023-06-05T02:53:21;94389.38;;;15.99;100.00
9462;BME280;4769;42.660;23.262;2023-06-05T02:55:46;94379.00;;;15.92;100.00
9462;BME280;4769;42.660;23.262;2023-06-05T02:58:12;94389.66;;;15.92;100.00
9462;BME280;4769;42.660;23.262;2023-06-05T03:00:38;94394.97;;;15.97;100.00
9462;BME280;4769;42.660;23.262;2023-06-05T03:03:03;94399.22;;;15.93;100.00
9462;BME280;4769;42.660;23.262;2023-06-05T03:05:31;94411.75;;;15.93;100.00
9462;BME280;4769;42.660;23.262;2023-06-05T03:07:57;94400.81;;;15.94;100.00
9462;BME280;4769;42.660;23.262;2023-06-05T03:10:23;94408.53;;;15.96;100.00
9462;BME280;4769;42.660;23.262;2023-06-05T03:12:49;94407.75;;;16.00;100.00
9462;BME280;4769;42.660;23.262;2023-06-05T03:15:15;94405.09;;;15.95;100.00
9462;BME280;4769;42.660;23.262;2023-06-05T03:17:40;94409.34;;;16.01;100.00
9462;BME280;4769;42.660;23.262;2023-06-05T03:20:07;94415.72;;;16.00;100.00
9462;BME280;4769;42.660;23.262;2023-06-05T03:22:35;94423.41;;;16.02;100.00
9462;BME280;4769;42.660;23.262;2023-06-05T03:25:01;94425.81;;;16.08;100.00
9462;BME280;4769;42.660;23.262;2023-06-05T03:27:26;94428.75;;;16.07;100.00
9462;BME280;4769;42.660;23.262;2023-06-05T03:29:52;94428.47;;;16.03;100.00
9462;BME280;4769;42.660;23.262;2023-06-05T03:32:18;94426.88;;;15.97;100.00
9462;BME280;4769;42.660;23.262;2023-06-05T03:34:43;94424.47;;;15.91;100.00
9462;BME280;4769;42.660;23.262;2023-06-05T03:37:09;94428.47;;;15.93;100.00
9462;BME280;4769;42.660;23.262;2023-06-05T03:39:37;94434.59;;;15.94;100.00
9462;BME280;4769;42.660;23.262;2023-06-05T03:42:04;94427.44;;;16.04;100.00
9462;BME280;4769;42.660;23.262;2023-06-05T03:44:29;94431.94;;;16.19;100.00
9462;BME280;4769;42.660;23.262;2023-06-05T03:46:55;94423.69;;;16.30;100.00
9462;BME280;4769;42.660;23.262;2023-06-05T03:49:21;94423.44;;;16.47;100.00
9462;BME280;4769;42.660;23.262;2023-06-05T03:51:47;94426.34;;;16.60;100.00
9462;BME280;4769;42.660;23.262;2023-06-05T03:54:13;94426.91;;;16.47;100.00
9462;BME280;4769;42.660;23.262;2023-06-05T03:56:41;94428.50;;;16.43;100.00
9462;BME280;4769;42.660;23.262;2023-06-05T03:59:06;94430.91;;;16.45;100.00
9462;BME280;4769;42.660;23.262;2023-06-05T04:01:35;94423.13;;;16.63;100.00
9462;BME280;4769;42.660;23.262;2023-06-05T04:04:01;94422.06;;;16.74;100.00
9462;BME280;4769;42.660;23.262;2023-06-05T04:06:26;94427.09;;;16.86;100.00
9462;BME280;4769;42.660;23.262;2023-06-05T04:08:52;94424.41;;;16.91;100.00
9462;BME280;4769;42.660;23.262;2023-06-05T04:11:18;94426.53;;;16.84;100.00
9462;BME280;4769;42.660;23.262;2023-06-05T04:13:46;94424.38;;;17.01;100.00
9462;BME280;4769;42.660;23.262;2023-06-05T04:16:12;94430.44;;;17.11;100.00
9462;BME280;4769;42.660;23.262;2023-06-05T04:18:37;94430.19;;;17.08;100.00
9462;BME280;4769;42.660;23.262;2023-06-05T04:21:03;94425.41;;;17.10;100.00
9462;BME280;4769;42.660;23.262;2023-06-05T04:23:29;94435.75;;;17.11;100.00
9462;BME280;4769;42.660;23.262;2023-06-05T04:25:54;94436.25;;;17.28;100.00
9462;BME280;4769;42.660;23.262;2023-06-05T04:28:20;94426.34;;;17.39;100.00
9462;BME280;4769;42.660;23.262;2023-06-05T04:30:48;94421.50;;;17.46;100.00
9462;BME280;4769;42.660;23.262;2023-06-05T04:33:14;94426.00;;;17.55;100.00
9462;BME280;4769;42.660;23.262;2023-06-05T04:35:40;94421.72;;;17.59;100.00
9462;BME280;4769;42.660;23.262;2023-06-05T04:38:05;94414.81;;;17.58;100.00
9462;BME280;4769;42.660;23.262;2023-06-05T04:40:31;94423.03;;;17.62;100.00
9462;BME280;4769;42.660;23.262;2023-06-05T04:42:57;94425.91;;;17.70;100.00
9462;BME280;4769;42.660;23.262;2023-06-05T04:45:22;94418.19;;;17.69;100.00
9462;BME280;4769;42.660;23.262;2023-06-05T04:47:51;94422.41;;;17.80;100.00
9462;BME280;4769;42.660;23.262;2023-06-05T04:50:27;94418.03;;;17.94;100.00
9462;BME280;4769;42.660;23.262;2023-06-05T04:52:53;94426.50;;;18.01;100.00
9462;BME280;4769;42.660;23.262;2023-06-05T04:55:19;94431.75;;;18.11;100.00
9462;BME280;4769;42.660;23.262;2023-06-05T04:57:45;94426.66;;;18.19;100.00
9462;BME280;4769;42.660;23.262;2023-06-05T05:00:12;94430.00;;;18.30;100.00
9462;BME280;4769;42.660;23.262;2023-06-05T05:02:38;94430.25;;;18.38;100.00
9462;BME280;4769;42.660;23.262;2023-06-05T05:05:07;94432.56;;;18.50;100.00
9462;BME280;4769;42.660;23.262;2023-06-05T05:07:33;94437.00;;;18.59;100.00
9462;BME280;4769;42.660;23.262;2023-06-05T05:09:58;94432.72;;;18.58;100.00
9462;BME280;4769;42.660;23.262;2023-06-05T05:12:24;94431.91;;;18.63;100.00
9462;BME280;4769;42.660;23.262;2023-06-05T05:14:50;94430.63;;;18.55;100.00
9462;BME280;4769;42.660;23.262;2023-06-05T05:17:15;94430.59;;;18.60;100.00
9462;BME280;4769;42.660;23.262;2023-06-05T05:19:41;94435.50;;;18.77;100.00
9462;BME280;4769;42.660;23.262;2023-06-05T05:22:09;94423.28;;;18.94;100.00
9462;BME280;4769;42.660;23.262;2023-06-05T05:24:35;94424.97;;;19.09;100.00
9462;BME280;4769;42.660;23.262;2023-06-05T05:27:01;94428.88;;;19.21;100.00
9462;BME280;4769;42.660;23.262;2023-06-05T05:29:27;94420.16;;;19.11;100.00
9462;BME280;4769;42.660;23.262;2023-06-05T05:31:52;94416.63;;;19.15;100.00
9462;BME280;4769;42.660;23.262;2023-06-05T05:34:18;94423.63;;;19.35;100.00
9462;BME280;4769;42.660;23.262;2023-06-05T05:36:44;94427.94;;;19.54;100.00
9462;BME280;4769;42.660;23.262;2023-06-05T05:39:12;94425.06;;;19.69;100.00
9462;BME280;4769;42.660;23.262;2023-06-05T05:41:38;94424.34;;;19.82;100.00
9462;BME280;4769;42.660;23.262;2023-06-05T05:44:04;94420.44;;;19.93;100.00
9462;BME280;4769;42.660;23.262;2023-06-05T05:46:29;94414.66;;;20.23;100.00
9462;BME280;4769;42.660;23.262;2023-06-05T05:48:55;94416.25;;;20.24;100.00
9462;BME280;4769;42.660;23.262;2023-06-05T05:51:21;94419.75;;;20.38;100.00
9462;BME280;4769;42.660;23.262;2023-06-05T05:53:47;94419.59;;;20.48;100.00
9462;BME280;4769;42.660;23.262;2023-06-05T05:56:15;94413.97;;;20.63;100.00
9462;BME280;4769;42.660;23.262;2023-06-05T05:58:41;94414.41;;;20.84;100.00
9462;BME280;4769;42.660;23.262;2023-06-05T06:01:06;94411.56;;;21.07;100.00
9462;BME280;4769;42.660;23.262;2023-06-05T06:03:32;94412.66;;;21.20;100.00
9462;BME280;4769;42.660;23.262;2023-06-05T06:05:58;94416.00;;;21.52;98.67
9462;BME280;4769;42.660;23.262;2023-06-05T06:08:24;94411.25;;;21.49;97.90
9462;BME280;4769;42.660;23.262;2023-06-05T06:10:50;94417.63;;;21.40;98.33
9462;BME280;4769;42.660;23.262;2023-06-05T06:13:18;94411.66;;;21.29;98.66
9462;BME280;4769;42.660;23.262;2023-06-05T06:15:44;94413.75;;;21.32;97.77
9462;BME280;4769;42.660;23.262;2023-06-05T06:18:10;94415.25;;;21.25;97.08
9462;BME280;4769;42.660;23.262;2023-06-05T06:20:36;94412.28;;;21.26;98.01
9462;BME280;4769;42.660;23.262;2023-06-05T06:23:01;94410.38;;;21.27;98.11
9462;BME280;4769;42.660;23.262;2023-06-05T06:25:27;94402.72;;;21.20;98.64
9462;BME280;4769;42.660;23.262;2023-06-05T06:27:53;94412.06;;;21.36;97.79
9462;BME280;4769;42.660;23.262;2023-06-05T06:30:21;94405.88;;;21.63;97.24
9462;BME280;4769;42.660;23.262;2023-06-05T06:32:47;94408.13;;;21.83;96.70
9462;BME280;4769;42.660;23.262;2023-06-05T06:35:12;94401.34;;;21.99;95.92
9462;BME280;4769;42.660;23.262;2023-06-05T06:37:38;94408.75;;;22.02;95.78
9462;BME280;4769;42.660;23.262;2023-06-05T06:40:05;94398.94;;;21.97;95.46
9462;BME280;4769;42.660;23.262;2023-06-05T06:42:31;94400.41;;;22.03;94.79
9462;BME280;4769;42.660;23.262;2023-06-05T06:44:57;94403.66;;;22.14;95.36
9462;BME280;4769;42.660;23.262;2023-06-05T06:47:25;94395.78;;;22.39;93.85
9462;BME280;4769;42.660;23.262;2023-06-05T06:49:51;94400.34;;;22.83;91.97
9462;BME280;4769;42.660;23.262;2023-06-05T06:52:17;94395.72;;;22.75;89.84
9462;BME280;4769;42.660;23.262;2023-06-05T06:54:43;94392.63;;;22.90;89.66
9462;BME280;4769;42.660;23.262;2023-06-05T06:57:08;94384.00;;;22.71;89.09
9462;BME280;4769;42.660;23.262;2023-06-05T06:59:34;94387.69;;;22.83;88.16
9462;BME280;4769;42.660;23.262;2023-06-05T07:02:12;94392.56;;;22.73;89.44
9462;BME280;4769;42.660;23.262;2023-06-05T07:04:41;94382.22;;;22.97;88.12
9462;BME280;4769;42.660;23.262;2023-06-05T07:07:08;94384.75;;;23.24;87.23
9462;BME280;4769;42.660;23.262;2023-06-05T07:09:34;94386.47;;;22.89;88.90
9462;BME280;4769;42.660;23.262;2023-06-05T07:11:59;94378.31;;;23.11;87.22
9462;BME280;4769;42.660;23.262;2023-06-05T07:14:25;94391.56;;;23.30;85.55
9462;BME280;4769;42.660;23.262;2023-06-05T07:16:51;94393.94;;;23.31;84.90
9462;BME280;4769;42.660;23.262;2023-06-05T07:19:16;94384.91;;;23.27;83.74
9462;BME280;4769;42.660;23.262;2023-06-05T07:21:45;94390.25;;;23.19;84.28
9462;BME280;4769;42.660;23.262;2023-06-05T07:24:10;94388.28;;;23.11;84.54
9462;BME280;4769;42.660;23.262;2023-06-05T07:26:36;94384.97;;;23.14;83.71
9462;BME280;4769;42.660;23.262;2023-06-05T07:29:02;94397.25;;;23.28;84.24
9462;BME280;4769;42.660;23.262;2023-06-05T07:31:28;94396.81;;;23.04;85.49
9462;BME280;4769;42.660;23.262;2023-06-05T07:33:53;94400.94;;;23.10;84.73
9462;BME280;4769;42.660;23.262;2023-06-05T07:36:19;94406.72;;;23.26;84.75
9462;BME280;4769;42.660;23.262;2023-06-05T07:38:47;94409.97;;;23.53;82.99
9462;BME280;4769;42.660;23.262;2023-06-05T07:41:13;94401.56;;;23.46;81.61
9462;BME280;4769;42.660;23.262;2023-06-05T07:43:39;94412.84;;;23.57;81.10
9462;BME280;4769;42.660;23.262;2023-06-05T07:46:05;94414.28;;;23.71;80.52
9462;BME280;4769;42.660;23.262;2023-06-05T07:48:30;94405.44;;;23.79;79.87
9462;BME280;4769;42.660;23.262;2023-06-05T07:50:56;94418.25;;;23.74;77.68
9462;BME280;4769;42.660;23.262;2023-06-05T07:53:22;94424.50;;;24.09;77.79
9462;BME280;4769;42.660;23.262;2023-06-05T07:55:50;94419.44;;;24.16;78.23
9462;BME280;4769;42.660;23.262;2023-06-05T07:58:16;94416.44;;;24.17;76.81
9462;BME280;4769;42.660;23.262;2023-06-05T08:00:42;94417.69;;;24.37;76.50
9462;BME280;4769;42.660;23.262;2023-06-05T08:03:07;94411.50;;;24.53;75.44
9462;BME280;4769;42.660;23.262;2023-06-05T08:05:33;94414.06;;;24.67;75.20
9462;BME280;4769;42.660;23.262;2023-06-05T08:07:59;94404.97;;;24.80;73.72
9462;BME280;4769;42.660;23.262;2023-06-05T08:10:24;94407.34;;;24.81;73.71
9462;BME280;4769;42.660;23.262;2023-06-05T08:12:54;94407.31;;;25.44;71.69
9462;BME280;4769;42.660;23.262;2023-06-05T08:15:20;94410.81;;;26.03;69.98
9462;BME280;4769;42.660;23.262;2023-06-05T08:17:45;94397.63;;;26.01;68.85
9462;BME280;4769;42.660;23.262;2023-06-05T08:20:11;94411.50;;;25.91;68.92
9462;BME280;4769;42.660;23.262;2023-06-05T08:22:37;94412.25;;;25.71;70.16
9462;BME280;4769;42.660;23.262;2023-06-05T08:25:04;94409.13;;;25.61;70.81
9462;BME280;4769;42.660;23.262;2023-06-05T08:27:30;94409.53;;;25.42;71.17
9462;BME280;4769;42.660;23.262;2023-06-05T08:29:58;94426.16;;;25.15;73.32
9462;BME280;4769;42.660;23.262;2023-06-05T08:32:24;94426.88;;;24.70;73.52
9462;BME280;4769;42.660;23.262;2023-06-05T08:34:49;94426.72;;;24.58;73.03
9462;BME280;4769;42.660;23.262;2023-06-05T08:37:17;94432.94;;;24.67;74.31
9462;BME280;4769;42.660;23.262;2023-06-05T08:39:44;94424.19;;;24.70;74.50
9462;BME280;4769;42.660;23.262;2023-06-05T08:42:09;94425.94;;;24.06;74.81
9462;BME280;4769;42.660;23.262;2023-06-05T08:44:35;94428.00;;;24.09;74.77
9462;BME280;4769;42.660;23.262;2023-06-05T08:47:04;94432.09;;;23.98;75.24
9462;BME280;4769;42.660;23.262;2023-06-05T08:49:30;94429.44;;;24.07;75.79
9462;BME280;4769;42.660;23.262;2023-06-05T08:51:57;94424.19;;;24.19;75.16
9462;BME280;4769;42.660;23.262;2023-06-05T08:54:26;94424.97;;;24.28;75.38
9462;BME280;4769;42.660;23.262;2023-06-05T08:56:52;94424.53;;;24.26;75.09
9462;BME280;4769;42.660;23.262;2023-06-05T08:59:18;94423.09;;;24.37;74.47
9462;BME280;4769;42.660;23.262;2023-06-05T09:01:46;94428.31;;;24.50;74.50
9462;BME280;4769;42.660;23.262;2023-06-05T09:04:15;94420.38;;;24.37;74.16
9462;BME280;4769;42.660;23.262;2023-06-05T09:06:45;94426.72;;;24.15;75.18
9462;BME280;4769;42.660;23.262;2023-06-05T09:09:11;94431.81;;;24.08;76.92
9462;BME280;4769;42.660;23.262;2023-06-05T09:11:37;94429.63;;;23.62;80.18
9462;BME280;4769;42.660;23.262;2023-06-05T09:14:02;94435.06;;;23.32;82.22
9462;BME280;4769;42.660;23.262;2023-06-05T09:16:35;94425.63;;;23.43;82.05
9462;BME280;4769;42.660;23.262;2023-06-05T09:19:02;94428.06;;;23.70;81.49
9462;BME280;4769;42.660;23.262;2023-06-05T09:21:31;94434.81;;;24.41;78.55
9462;BME280;4769;42.660;23.262;2023-06-05T09:24:15;94425.38;;;25.52;75.37
9462;BME280;4769;42.660;23.262;2023-06-05T09:26:54;94421.09;;;26.30;70.34
9462;BME280;4769;42.660;23.262;2023-06-05T09:29:24;94422.19;;;26.70;68.10
9462;BME280;4769;42.660;23.262;2023-06-05T09:31:51;94430.38;;;26.94;65.93
9462;BME280;4769;42.660;23.262;2023-06-05T09:34:21;94425.69;;;26.70;66.91
9462;BME280;4769;42.660;23.262;2023-06-05T09:36:50;94425.81;;;26.74;66.68
9462;BME280;4769;42.660;23.262;2023-06-05T09:39:16;94421.75;;;26.68;66.89
9462;BME280;4769;42.660;23.262;2023-06-05T09:41:42;94419.25;;;26.22;67.08
9462;BME280;4769;42.660;23.262;2023-06-05T09:44:08;94422.06;;;25.76;68.30
9462;BME280;4769;42.660;23.262;2023-06-05T09:46:34;94417.53;;;25.30;70.75
9462;BME280;4769;42.660;23.262;2023-06-05T09:49:00;94414.06;;;25.21;71.67
9462;BME280;4769;42.660;23.262;2023-06-05T09:51:26;94413.22;;;24.75;72.15
9462;BME280;4769;42.660;23.262;2023-06-05T09:53:56;94419.94;;;24.35;73.37
9462;BME280;4769;42.660;23.262;2023-06-05T09:56:23;94415.81;;;24.37;74.58
9462;BME280;4769;42.660;23.262;2023-06-05T09:58:50;94410.25;;;24.34;76.15
9462;BME280;4769;42.660;23.262;2023-06-05T10:01:18;94406.75;;;24.42;76.90
9462;BME280;4769;42.660;23.262;2023-06-05T10:03:48;94410.25;;;24.34;77.03
9462;BME280;4769;42.660;23.262;2023-06-05T10:06:16;94398.38;;;24.01;78.37
9462;BME280;4769;42.660;23.262;2023-06-05T10:08:43;94407.25;;;24.18;78.54
9462;BME280;4769;42.660;23.262;2023-06-05T10:11:11;94408.97;;;24.40;76.93
9462;BME280;4769;42.660;23.262;2023-06-05T10:13:37;94405.94;;;24.50;77.66
9462;BME280;4769;42.660;23.262;2023-06-05T10:16:04;94405.44;;;23.79;77.62
9462;BME280;4769;42.660;23.262;2023-06-05T10:18:31;94407.97;;;23.84;78.60
9462;BME280;4769;42.660;23.262;2023-06-05T10:20:57;94408.81;;;24.28;77.86
9462;BME280;4769;42.660;23.262;2023-06-05T10:23:24;94398.06;;;24.36;78.29
9462;BME280;4769;42.660;23.262;2023-06-05T10:25:52;94407.53;;;24.68;76.67
9462;BME280;4769;42.660;23.262;2023-06-05T10:28:34;94402.31;;;24.63;76.26
9462;BME280;4769;42.660;23.262;2023-06-05T10:31:18;94397.94;;;24.96;76.12
9462;BME280;4769;42.660;23.262;2023-06-05T10:33:54;94381.38;;;25.52;73.57
9462;BME280;4769;42.660;23.262;2023-06-05T10:36:38;94387.84;;;26.29;71.10
9462;BME280;4769;42.660;23.262;2023-06-05T10:39:08;94374.88;;;27.32;67.38
9462;BME280;4769;42.660;23.262;2023-06-05T10:41:34;94375.91;;;27.88;64.03
9462;BME280;4769;42.660;23.262;2023-06-05T10:44:03;94373.41;;;28.34;60.54
9462;BME280;4769;42.660;23.262;2023-06-05T10:46:31;94363.31;;;28.47;58.79
9462;BME280;4769;42.660;23.262;2023-06-05T10:49:07;94367.72;;;28.51;60.29
9462;BME280;4769;42.660;23.262;2023-06-05T10:51:35;94371.97;;;28.64;59.34
9462;BME280;4769;42.660;23.262;2023-06-05T10:54:01;94360.94;;;28.73;58.29
9462;BME280;4769;42.660;23.262;2023-06-05T10:56:52;94358.59;;;28.87;57.69
9462;BME280;4769;42.660;23.262;2023-06-05T10:59:21;94356.16;;;28.97;56.88
9462;BME280;4769;42.660;23.262;2023-06-05T11:02:22;94355.88;;;28.99;55.85
9462;BME280;4769;42.660;23.262;2023-06-05T11:05:04;94358.88;;;28.54;58.07
9462;BME280;4769;42.660;23.262;2023-06-05T11:07:30;94342.38;;;29.18;55.35
9462;BME280;4769;42.660;23.262;2023-06-05T11:10:10;94341.06;;;29.93;53.25
9462;BME280;4769;42.660;23.262;2023-06-05T11:15:39;94327.56;;;31.85;46.76
9462;BME280;4769;42.660;23.262;2023-06-05T11:18:29;94324.91;;;31.66;46.27
9462;BME280;4769;42.660;23.262;2023-06-05T11:20:55;94331.69;;;29.56;51.52
9462;BME280;4769;42.660;23.262;2023-06-05T11:23:22;94319.56;;;29.38;53.24
9462;BME280;4769;42.660;23.262;2023-06-05T11:25:48;94322.91;;;29.00;54.17
9462;BME280;4769;42.660;23.262;2023-06-05T11:28:14;94315.56;;;29.01;55.29
9462;BME280;4769;42.660;23.262;2023-06-05T11:31:02;94318.28;;;29.16;54.46
9462;BME280;4769;42.660;23.262;2023-06-05T11:33:29;94317.06;;;30.33;51.96
9462;BME280;4769;42.660;23.262;2023-06-05T11:36:00;94319.91;;;30.59;49.41
9462;BME280;4769;42.660;23.262;2023-06-05T11:38:26;94313.56;;;30.70;46.26
9462;BME280;4769;42.660;23.262;2023-06-05T11:40:52;94310.47;;;30.53;47.08
9462;BME280;4769;42.660;23.262;2023-06-05T11:43:19;94313.84;;;31.55;45.07
9462;BME280;4769;42.660;23.262;2023-06-05T11:45:49;94299.22;;;32.52;43.66
9462;BME280;4769;42.660;23.262;2023-06-05T11:48:18;94298.22;;;32.05;44.01
9462;BME280;4769;42.660;23.262;2023-06-05T11:50:51;94302.72;;;32.82;42.25
9462;BME280;4769;42.660;23.262;2023-06-05T11:53:18;94298.94;;;32.61;41.76
9462;BME280;4769;42.660;23.262;2023-06-05T11:55:44;94299.97;;;32.82;40.83
9462;BME280;4769;42.660;23.262;2023-06-05T11:58:10;94289.16;;;31.71;43.48
9462;BME280;4769;42.660;23.262;2023-06-05T12:00:36;94296.97;;;31.72;44.92
9462;BME280;4769;42.660;23.262;2023-06-05T12:03:04;94290.31;;;32.26;43.27
9462;BME280;4769;42.660;23.262;2023-06-05T12:05:32;94286.16;;;32.72;41.38
9462;BME280;4769;42.660;23.262;2023-06-05T12:07:58;94286.88;;;31.24;44.01
9462;BME280;4769;42.660;23.262;2023-06-05T12:10:44;94283.19;;;31.88;44.41
9462;BME280;4769;42.660;23.262;2023-06-05T12:13:09;94279.72;;;32.87;44.07
9462;BME280;4769;42.660;23.262;2023-06-05T12:15:35;94284.16;;;32.65;39.69
9462;BME280;4769;42.660;23.262;2023-06-05T12:18:01;94274.84;;;31.51;43.08
9462;BME280;4769;42.660;23.262;2023-06-05T12:20:40;94273.66;;;31.75;45.85
9462;BME280;4769;42.660;23.262;2023-06-05T12:23:06;94263.22;;;31.80;43.63
9462;BME280;4769;42.660;23.262;2023-06-05T12:25:32;94261.88;;;31.71;43.88
9462;BME280;4769;42.660;23.262;2023-06-05T12:27:58;94276.72;;;31.21;44.22
9462;BME280;4769;42.660;23.262;2023-06-05T12:30:24;94269.19;;;30.70;44.58
9462;BME280;4769;42.660;23.262;2023-06-05T12:32:49;94269.38;;;30.80;45.25
9462;BME280;4769;42.660;23.262;2023-06-05T12:35:18;94258.97;;;31.08;44.48
9462;BME280;4769;42.660;23.262;2023-06-05T12:37:47;94253.34;;;31.46;44.32
9462;BME280;4769;42.660;23.262;2023-06-05T12:40:14;94248.00;;;31.79;43.88
9462;BME280;4769;42.660;23.262;2023-06-05T12:42:41;94242.88;;;32.74;42.00
9462;BME280;4769;42.660;23.262;2023-06-05T12:45:09;94240.19;;;32.77;41.51
9462;BME280;4769;42.660;23.262;2023-06-05T12:47:36;94235.25;;;32.90;40.31
9462;BME280;4769;42.660;23.262;2023-06-05T12:50:03;94227.44;;;33.96;39.36
9462;BME280;4769;42.660;23.262;2023-06-05T12:52:29;94233.84;;;33.06;39.23
9462;BME280;4769;42.660;23.262;2023-06-05T12:54:58;94222.34;;;32.87;39.79
9462;BME280;4769;42.660;23.262;2023-06-05T12:57:23;94234.41;;;33.26;38.38
9462;BME280;4769;42.660;23.262;2023-06-05T12:59:51;94228.66;;;34.02;37.15
9462;BME280;4769;42.660;23.262;2023-06-05T13:02:17;94230.25;;;32.95;39.35
9462;BME280;4769;42.660;23.262;2023-06-05T13:04:43;94231.94;;;33.64;39.59
9462;BME280;4769;42.660;23.262;2023-06-05T13:07:09;94238.25;;;31.78;42.17
9462;BME280;4769;42.660;23.262;2023-06-05T13:09:34;94227.34;;;30.78;44.26